Terminal Aerodrome Forecast
Issued by NWS

Home | Current Version | Previous Version | Graphics & Text | Print | Product List | Glossary On
Versions: 1 2 3 4 5 6 7 8 9 10 11 12 13 14 15 16 17
000
FTUS43 KGRB 282321
TAFCWA
TAF
KCWA 282321Z 2900/2924 02007KT P6SM SCT060
     FM290200 36005KT P6SM SKC
     FM291600 04009G15KT P6SM SCT040
      AMD LTD TO CLD VIS AND WIND 2903/2911=

USA.gov is the U.S. government's official web portal to all federal, state and local government web resources and services.